sensor_id;sensor_type;location;lat;lon;timestamp;P1;durP1;ratioP1;P2;durP2;ratioP2
38783;SDS011;24531;45.502;12.238;2024-02-21T00:00:53;32.85;;;25.70;;
38783;SDS011;24531;45.502;12.238;2024-02-21T00:03:18;34.53;;;24.52;;
38783;SDS011;24531;45.502;12.238;2024-02-21T00:05:44;36.58;;;27.17;;
38783;SDS011;24531;45.502;12.238;2024-02-21T00:08:10;38.08;;;26.83;;
38783;SDS011;24531;45.502;12.238;2024-02-21T00:10:36;38.80;;;28.52;;
38783;SDS011;24531;45.502;12.238;2024-02-21T00:13:01;36.88;;;26.20;;
38783;SDS011;24531;45.502;12.238;2024-02-21T00:15:28;36.55;;;25.25;;
38783;SDS011;24531;45.502;12.238;2024-02-21T00:17:54;33.95;;;25.05;;
38783;SDS011;24531;45.502;12.238;2024-02-21T00:20:19;46.33;;;26.40;;
38783;SDS011;24531;45.502;12.238;2024-02-21T00:22:45;36.80;;;25.23;;
38783;SDS011;24531;45.502;12.238;2024-02-21T00:25:11;34.55;;;25.25;;
38783;SDS011;24531;45.502;12.238;2024-02-21T00:27:37;35.10;;;25.00;;
38783;SDS011;24531;45.502;12.238;2024-02-21T00:30:03;35.83;;;24.70;;
38783;SDS011;24531;45.502;12.238;2024-02-21T00:32:29;34.95;;;25.58;;
38783;SDS011;24531;45.502;12.238;2024-02-21T00:34:55;33.45;;;24.98;;
38783;SDS011;24531;45.502;12.238;2024-02-21T00:37:20;34.85;;;26.75;;
38783;SDS011;24531;45.502;12.238;2024-02-21T00:39:46;41.17;;;28.27;;
38783;SDS011;24531;45.502;12.238;2024-02-21T00:42:11;39.00;;;27.52;;
38783;SDS011;24531;45.502;12.238;2024-02-21T00:44:37;40.70;;;29.42;;
38783;SDS011;24531;45.502;12.238;2024-02-21T00:47:03;41.42;;;29.00;;
38783;SDS011;24531;45.502;12.238;2024-02-21T00:49:28;46.75;;;30.60;;
38783;SDS011;24531;45.502;12.238;2024-02-21T00:51:54;45.35;;;30.70;;
38783;SDS011;24531;45.502;12.238;2024-02-21T00:54:19;40.90;;;28.65;;
38783;SDS011;24531;45.502;12.238;2024-02-21T00:56:45;40.22;;;28.98;;
38783;SDS011;24531;45.502;12.238;2024-02-21T00:59:10;44.65;;;30.45;;
38783;SDS011;24531;45.502;12.238;2024-02-21T01:01:36;43.58;;;30.92;;
38783;SDS011;24531;45.502;12.238;2024-02-21T01:04:02;45.17;;;30.27;;
38783;SDS011;24531;45.502;12.238;2024-02-21T01:06:27;44.85;;;32.03;;
38783;SDS011;24531;45.502;12.238;2024-02-21T01:08:53;47.40;;;32.95;;
38783;SDS011;24531;45.502;12.238;2024-02-21T01:11:18;44.50;;;32.13;;
38783;SDS011;24531;45.502;12.238;2024-02-21T01:13:44;41.80;;;30.33;;
38783;SDS011;24531;45.502;12.238;2024-02-21T01:16:10;43.42;;;31.20;;
38783;SDS011;24531;45.502;12.238;2024-02-21T01:18:38;46.70;;;32.78;;
38783;SDS011;24531;45.502;12.238;2024-02-21T01:21:05;46.05;;;32.67;;
38783;SDS011;24531;45.502;12.238;2024-02-21T01:23:34;40.50;;;31.50;;
38783;SDS011;24531;45.502;12.238;2024-02-21T01:25:59;43.13;;;31.90;;
38783;SDS011;24531;45.502;12.238;2024-02-21T01:28:25;43.92;;;31.92;;
38783;SDS011;24531;45.502;12.238;2024-02-21T01:30:51;48.05;;;33.15;;
38783;SDS011;24531;45.502;12.238;2024-02-21T01:33:17;43.08;;;31.10;;
38783;SDS011;24531;45.502;12.238;2024-02-21T01:35:42;44.50;;;32.33;;
38783;SDS011;24531;45.502;12.238;2024-02-21T01:38:08;43.40;;;32.50;;
38783;SDS011;24531;45.502;12.238;2024-02-21T01:40:33;46.63;;;33.30;;
38783;SDS011;24531;45.502;12.238;2024-02-21T01:42:59;42.72;;;32.28;;
38783;SDS011;24531;45.502;12.238;2024-02-21T01:45:25;51.25;;;36.08;;
38783;SDS011;24531;45.502;12.238;2024-02-21T01:47:50;45.80;;;33.33;;
38783;SDS011;24531;45.502;12.238;2024-02-21T01:50:16;44.60;;;32.33;;
38783;SDS011;24531;45.502;12.238;2024-02-21T01:52:43;49.47;;;34.67;;
38783;SDS011;24531;45.502;12.238;2024-02-21T01:55:13;45.33;;;32.72;;
38783;SDS011;24531;45.502;12.238;2024-02-21T01:57:40;49.65;;;33.42;;
38783;SDS011;24531;45.502;12.238;2024-02-21T02:00:06;46.63;;;32.90;;
38783;SDS011;24531;45.502;12.238;2024-02-21T02:02:33;46.97;;;34.00;;
38783;SDS011;24531;45.502;12.238;2024-02-21T02:04:59;47.22;;;33.20;;
38783;SDS011;24531;45.502;12.238;2024-02-21T02:07:25;44.00;;;31.40;;
38783;SDS011;24531;45.502;12.238;2024-02-21T02:09:51;45.60;;;32.05;;
38783;SDS011;24531;45.502;12.238;2024-02-21T02:12:17;43.03;;;31.23;;
38783;SDS011;24531;45.502;12.238;2024-02-21T02:14:42;43.63;;;31.50;;
38783;SDS011;24531;45.502;12.238;2024-02-21T02:17:08;44.47;;;31.50;;
38783;SDS011;24531;45.502;12.238;2024-02-21T02:19:34;41.08;;;30.30;;
38783;SDS011;24531;45.502;12.238;2024-02-21T02:22:03;40.70;;;30.38;;
38783;SDS011;24531;45.502;12.238;2024-02-21T02:24:41;42.65;;;30.98;;
38783;SDS011;24531;45.502;12.238;2024-02-21T02:27:07;43.42;;;31.23;;
38783;SDS011;24531;45.502;12.238;2024-02-21T02:29:32;45.38;;;31.98;;
38783;SDS011;24531;45.502;12.238;2024-02-21T02:31:58;44.38;;;31.60;;
38783;SDS011;24531;45.502;12.238;2024-02-21T02:34:24;45.08;;;31.58;;
38783;SDS011;24531;45.502;12.238;2024-02-21T02:36:49;42.95;;;31.92;;
38783;SDS011;24531;45.502;12.238;2024-02-21T02:39:15;38.50;;;29.77;;
38783;SDS011;24531;45.502;12.238;2024-02-21T02:41:40;45.72;;;30.80;;
38783;SDS011;24531;45.502;12.238;2024-02-21T02:44:06;38.20;;;29.90;;
38783;SDS011;24531;45.502;12.238;2024-02-21T02:46:31;47.05;;;31.95;;
38783;SDS011;24531;45.502;12.238;2024-02-21T02:48:57;43.17;;;30.48;;
38783;SDS011;24531;45.502;12.238;2024-02-21T02:51:23;44.35;;;30.67;;
38783;SDS011;24531;45.502;12.238;2024-02-21T02:53:48;43.00;;;31.58;;
38783;SDS011;24531;45.502;12.238;2024-02-21T02:56:17;42.47;;;31.23;;
38783;SDS011;24531;45.502;12.238;2024-02-21T02:58:43;47.35;;;31.95;;
38783;SDS011;24531;45.502;12.238;2024-02-21T03:01:09;49.88;;;31.48;;
38783;SDS011;24531;45.502;12.238;2024-02-21T03:03:34;45.50;;;31.67;;
38783;SDS011;24531;45.502;12.238;2024-02-21T03:06:00;44.63;;;32.33;;
38783;SDS011;24531;45.502;12.238;2024-02-21T03:08:26;46.15;;;31.35;;
38783;SDS011;24531;45.502;12.238;2024-02-21T03:10:52;41.78;;;30.08;;
38783;SDS011;24531;45.502;12.238;2024-02-21T03:13:17;43.55;;;30.55;;
38783;SDS011;24531;45.502;12.238;2024-02-21T03:15:43;39.97;;;30.13;;
38783;SDS011;24531;45.502;12.238;2024-02-21T03:18:08;43.42;;;29.83;;
38783;SDS011;24531;45.502;12.238;2024-02-21T03:20:34;43.67;;;30.88;;
38783;SDS011;24531;45.502;12.238;2024-02-21T03:22:59;42.33;;;30.55;;
38783;SDS011;24531;45.502;12.238;2024-02-21T03:25:25;43.33;;;29.50;;
38783;SDS011;24531;45.502;12.238;2024-02-21T03:27:51;46.58;;;29.33;;
38783;SDS011;24531;45.502;12.238;2024-02-21T03:30:16;40.78;;;27.70;;
38783;SDS011;24531;45.502;12.238;2024-02-21T03:32:42;37.90;;;26.65;;
38783;SDS011;24531;45.502;12.238;2024-02-21T03:35:08;41.67;;;28.70;;
38783;SDS011;24531;45.502;12.238;2024-02-21T03:37:33;37.80;;;27.10;;
38783;SDS011;24531;45.502;12.238;2024-02-21T03:39:59;39.65;;;27.60;;
38783;SDS011;24531;45.502;12.238;2024-02-21T03:42:24;36.15;;;26.10;;
38783;SDS011;24531;45.502;12.238;2024-02-21T03:44:50;38.30;;;27.42;;
38783;SDS011;24531;45.502;12.238;2024-02-21T03:47:16;39.20;;;26.85;;
38783;SDS011;24531;45.502;12.238;2024-02-21T03:49:41;39.55;;;26.85;;
38783;SDS011;24531;45.502;12.238;2024-02-21T03:52:07;39.47;;;26.35;;
38783;SDS011;24531;45.502;12.238;2024-02-21T03:54:34;37.47;;;26.58;;
38783;SDS011;24531;45.502;12.238;2024-02-21T03:56:59;37.70;;;27.52;;
38783;SDS011;24531;45.502;12.238;2024-02-21T03:59:25;39.90;;;26.20;;
38783;SDS011;24531;45.502;12.238;2024-02-21T04:01:53;36.67;;;26.30;;
38783;SDS011;24531;45.502;12.238;2024-02-21T04:04:20;36.08;;;25.40;;
38783;SDS011;24531;45.502;12.238;2024-02-21T04:06:48;38.25;;;26.35;;
38783;SDS011;24531;45.502;12.238;2024-02-21T04:09:14;36.92;;;26.75;;
38783;SDS011;24531;45.502;12.238;2024-02-21T04:11:40;39.20;;;26.52;;
38783;SDS011;24531;45.502;12.238;2024-02-21T04:14:06;34.83;;;24.85;;
38783;SDS011;24531;45.502;12.238;2024-02-21T04:16:32;38.35;;;25.98;;
38783;SDS011;24531;45.502;12.238;2024-02-21T04:18:57;38.58;;;25.75;;
38783;SDS011;24531;45.502;12.238;2024-02-21T04:21:23;37.58;;;24.25;;
38783;SDS011;24531;45.502;12.238;2024-02-21T04:23:49;35.47;;;24.58;;
38783;SDS011;24531;45.502;12.238;2024-02-21T04:26:14;35.20;;;25.65;;
38783;SDS011;24531;45.502;12.238;2024-02-21T04:28:40;34.95;;;24.63;;
38783;SDS011;24531;45.502;12.238;2024-02-21T04:31:05;35.58;;;24.20;;
38783;SDS011;24531;45.502;12.238;2024-02-21T04:33:31;36.80;;;25.23;;
38783;SDS011;24531;45.502;12.238;2024-02-21T04:35:57;35.53;;;24.85;;
38783;SDS011;24531;45.502;12.238;2024-02-21T04:38:23;32.65;;;23.83;;
38783;SDS011;24531;45.502;12.238;2024-02-21T04:40:49;32.67;;;23.05;;
38783;SDS011;24531;45.502;12.238;2024-02-21T04:43:14;32.42;;;22.83;;
38783;SDS011;24531;45.502;12.238;2024-02-21T04:45:40;31.83;;;22.17;;
38783;SDS011;24531;45.502;12.238;2024-02-21T04:48:06;31.20;;;22.67;;
38783;SDS011;24531;45.502;12.238;2024-02-21T04:50:32;30.08;;;20.10;;
38783;SDS011;24531;45.502;12.238;2024-02-21T04:52:57;27.70;;;20.35;;
38783;SDS011;24531;45.502;12.238;2024-02-21T04:55:23;30.15;;;20.65;;
38783;SDS011;24531;45.502;12.238;2024-02-21T04:57:49;28.00;;;20.67;;
38783;SDS011;24531;45.502;12.238;2024-02-21T05:00:14;31.30;;;20.75;;
38783;SDS011;24531;45.502;12.238;2024-02-21T05:02:40;26.20;;;19.15;;
38783;SDS011;24531;45.502;12.238;2024-02-21T05:05:06;28.55;;;21.10;;
38783;SDS011;24531;45.502;12.238;2024-02-21T05:07:32;32.20;;;21.25;;
38783;SDS011;24531;45.502;12.238;2024-02-21T05:09:57;26.70;;;19.83;;
38783;SDS011;24531;45.502;12.238;2024-02-21T05:12:23;33.03;;;20.23;;
38783;SDS011;24531;45.502;12.238;2024-02-21T05:14:48;32.42;;;21.27;;
38783;SDS011;24531;45.502;12.238;2024-02-21T05:17:15;28.27;;;19.83;;
38783;SDS011;24531;45.502;12.238;2024-02-21T05:19:40;29.33;;;20.58;;
38783;SDS011;24531;45.502;12.238;2024-02-21T05:22:06;28.95;;;20.77;;
38783;SDS011;24531;45.502;12.238;2024-02-21T05:24:32;30.77;;;19.75;;
38783;SDS011;24531;45.502;12.238;2024-02-21T05:26:57;29.98;;;21.20;;
38783;SDS011;24531;45.502;12.238;2024-02-21T05:29:23;26.52;;;19.55;;
38783;SDS011;24531;45.502;12.238;2024-02-21T05:34:18;28.60;;;21.05;;
38783;SDS011;24531;45.502;12.238;2024-02-21T05:36:44;33.72;;;21.27;;
38783;SDS011;24531;45.502;12.238;2024-02-21T05:39:10;33.58;;;21.40;;
38783;SDS011;24531;45.502;12.238;2024-02-21T05:41:35;29.20;;;21.38;;
38783;SDS011;24531;45.502;12.238;2024-02-21T05:44:01;32.00;;;23.65;;
38783;SDS011;24531;45.502;12.238;2024-02-21T05:46:27;40.20;;;27.15;;
38783;SDS011;24531;45.502;12.238;2024-02-21T05:48:52;40.45;;;24.55;;
38783;SDS011;24531;45.502;12.238;2024-02-21T05:51:18;29.48;;;21.92;;
38783;SDS011;24531;45.502;12.238;2024-02-21T05:53:44;30.83;;;21.30;;
38783;SDS011;24531;45.502;12.238;2024-02-21T05:56:13;32.45;;;22.40;;
38783;SDS011;24531;45.502;12.238;2024-02-21T05:58:39;33.05;;;22.67;;
38783;SDS011;24531;45.502;12.238;2024-02-21T06:01:05;34.58;;;23.02;;
38783;SDS011;24531;45.502;12.238;2024-02-21T06:03:32;36.05;;;23.75;;
38783;SDS011;24531;45.502;12.238;2024-02-21T06:05:58;37.55;;;24.88;;
38783;SDS011;24531;45.502;12.238;2024-02-21T06:08:25;30.80;;;22.20;;
38783;SDS011;24531;45.502;12.238;2024-02-21T06:10:51;30.65;;;23.13;;
38783;SDS011;24531;45.502;12.238;2024-02-21T06:13:20;32.38;;;23.23;;
38783;SDS011;24531;45.502;12.238;2024-02-21T06:15:46;32.30;;;24.95;;
38783;SDS011;24531;45.502;12.238;2024-02-21T06:18:12;39.60;;;28.88;;
38783;SDS011;24531;45.502;12.238;2024-02-21T06:20:38;37.75;;;29.35;;
38783;SDS011;24531;45.502;12.238;2024-02-21T06:23:05;39.78;;;27.70;;
38783;SDS011;24531;45.502;12.238;2024-02-21T06:25:31;35.25;;;26.17;;
38783;SDS011;24531;45.502;12.238;2024-02-21T06:27:57;33.83;;;24.15;;
38783;SDS011;24531;45.502;12.238;2024-02-21T06:30:22;31.88;;;23.73;;
38783;SDS011;24531;45.502;12.238;2024-02-21T06:32:48;34.22;;;24.88;;
38783;SDS011;24531;45.502;12.238;2024-02-21T06:35:13;36.08;;;23.83;;
38783;SDS011;24531;45.502;12.238;2024-02-21T06:37:39;34.63;;;24.08;;
38783;SDS011;24531;45.502;12.238;2024-02-21T06:40:05;29.52;;;22.88;;
38783;SDS011;24531;45.502;12.238;2024-02-21T06:42:31;32.95;;;22.55;;
38783;SDS011;24531;45.502;12.238;2024-02-21T06:44:57;34.08;;;22.55;;
38783;SDS011;24531;45.502;12.238;2024-02-21T06:47:22;30.98;;;23.08;;
38783;SDS011;24531;45.502;12.238;2024-02-21T06:49:49;30.15;;;21.55;;
38783;SDS011;24531;45.502;12.238;2024-02-21T06:52:17;34.05;;;20.73;;
38783;SDS011;24531;45.502;12.238;2024-02-21T06:54:45;29.13;;;20.92;;
38783;SDS011;24531;45.502;12.238;2024-02-21T06:57:13;30.02;;;21.23;;
38783;SDS011;24531;45.502;12.238;2024-02-21T06:59:42;40.40;;;23.95;;
38783;SDS011;24531;45.502;12.238;2024-02-21T07:02:08;39.17;;;24.80;;
38783;SDS011;24531;45.502;12.238;2024-02-21T07:04:33;39.83;;;24.38;;
38783;SDS011;24531;45.502;12.238;2024-02-21T07:06:59;33.92;;;21.55;;
38783;SDS011;24531;45.502;12.238;2024-02-21T07:09:25;32.20;;;21.38;;
38783;SDS011;24531;45.502;12.238;2024-02-21T07:11:51;29.77;;;19.42;;
38783;SDS011;24531;45.502;12.238;2024-02-21T07:14:18;32.20;;;19.58;;
38783;SDS011;24531;45.502;12.238;2024-02-21T07:16:43;29.98;;;18.35;;
38783;SDS011;24531;45.502;12.238;2024-02-21T07:19:09;26.25;;;16.25;;
38783;SDS011;24531;45.502;12.238;2024-02-21T07:21:34;25.05;;;15.55;;
38783;SDS011;24531;45.502;12.238;2024-02-21T07:24:03;19.55;;;12.35;;
38783;SDS011;24531;45.502;12.238;2024-02-21T07:26:29;16.30;;;11.50;;
38783;SDS011;24531;45.502;12.238;2024-02-21T07:28:56;14.15;;;10.80;;
38783;SDS011;24531;45.502;12.238;2024-02-21T07:31:21;12.93;;;9.88;;
38783;SDS011;24531;45.502;12.238;2024-02-21T07:33:47;15.65;;;10.38;;
38783;SDS011;24531;45.502;12.238;2024-02-21T07:36:14;16.42;;;10.98;;
38783;SDS011;24531;45.502;12.238;2024-02-21T07:38:41;13.48;;;8.80;;
38783;SDS011;24531;45.502;12.238;2024-02-21T07:41:07;13.38;;;9.77;;
38783;SDS011;24531;45.502;12.238;2024-02-21T07:43:32;14.50;;;9.98;;
38783;SDS011;24531;45.502;12.238;2024-02-21T07:45:58;12.30;;;9.45;;
38783;SDS011;24531;45.502;12.238;2024-02-21T07:48:23;12.32;;;9.20;;
38783;SDS011;24531;45.502;12.238;2024-02-21T07:50:50;12.45;;;9.27;;
38783;SDS011;24531;45.502;12.238;2024-02-21T07:53:16;13.20;;;8.52;;
38783;SDS011;24531;45.502;12.238;2024-02-21T07:55:41;10.25;;;7.90;;
38783;SDS011;24531;45.502;12.238;2024-02-21T07:58:07;9.10;;;7.20;;
38783;SDS011;24531;45.502;12.238;2024-02-21T08:00:33;9.45;;;7.32;;
38783;SDS011;24531;45.502;12.238;2024-02-21T08:02:58;11.13;;;8.18;;
38783;SDS011;24531;45.502;12.238;2024-02-21T08:05:24;8.35;;;7.35;;
38783;SDS011;24531;45.502;12.238;2024-02-21T08:07:50;10.27;;;7.22;;
38783;SDS011;24531;45.502;12.238;2024-02-21T08:10:15;10.48;;;6.43;;
38783;SDS011;24531;45.502;12.238;2024-02-21T08:12:41;9.90;;;6.90;;
38783;SDS011;24531;45.502;12.238;2024-02-21T08:15:07;11.57;;;6.47;;
38783;SDS011;24531;45.502;12.238;2024-02-21T08:17:35;7.85;;;6.07;;
38783;SDS011;24531;45.502;12.238;2024-02-21T08:20:01;8.98;;;5.88;;
38783;SDS011;24531;45.502;12.238;2024-02-21T08:22:28;8.95;;;5.65;;
38783;SDS011;24531;45.502;12.238;2024-02-21T08:24:53;6.45;;;5.07;;
38783;SDS011;24531;45.502;12.238;2024-02-21T08:27:19;10.93;;;5.50;;
38783;SDS011;24531;45.502;12.238;2024-02-21T08:29:44;6.20;;;5.43;;
38783;SDS011;24531;45.502;12.238;2024-02-21T08:32:10;8.32;;;6.18;;
38783;SDS011;24531;45.502;12.238;2024-02-21T08:34:36;6.82;;;5.43;;
38783;SDS011;24531;45.502;12.238;2024-02-21T08:37:01;6.38;;;5.07;;
38783;SDS011;24531;45.502;12.238;2024-02-21T08:39:27;7.70;;;5.60;;
38783;SDS011;24531;45.502;12.238;2024-02-21T08:41:55;7.60;;;4.97;;
38783;SDS011;24531;45.502;12.238;2024-02-21T08:44:22;7.38;;;5.07;;
38783;SDS011;24531;45.502;12.238;2024-02-21T08:46:52;5.82;;;4.90;;
38783;SDS011;24531;45.502;12.238;2024-02-21T08:49:18;7.85;;;4.75;;
38783;SDS011;24531;45.502;12.238;2024-02-21T08:51:44;8.50;;;4.65;;
38783;SDS011;24531;45.502;12.238;2024-02-21T08:54:10;6.30;;;4.60;;
38783;SDS011;24531;45.502;12.238;2024-02-21T08:56:36;5.35;;;3.90;;
38783;SDS011;24531;45.502;12.238;2024-02-21T08:59:02;5.30;;;4.03;;
38783;SDS011;24531;45.502;12.238;2024-02-21T09:01:28;4.85;;;3.95;;
38783;SDS011;24531;45.502;12.238;2024-02-21T09:03:54;4.70;;;3.60;;
38783;SDS011;24531;45.502;12.238;2024-02-21T09:06:21;4.78;;;3.53;;
38783;SDS011;24531;45.502;12.238;2024-02-21T09:08:47;4.07;;;3.28;;
38783;SDS011;24531;45.502;12.238;2024-02-21T09:11:13;3.35;;;3.00;;
38783;SDS011;24531;45.502;12.238;2024-02-21T09:13:39;5.07;;;3.72;;
38783;SDS011;24531;45.502;12.238;2024-02-21T09:16:04;4.20;;;3.00;;
38783;SDS011;24531;45.502;12.238;2024-02-21T09:18:31;3.28;;;2.97;;
38783;SDS011;24531;45.502;12.238;2024-02-21T09:20:57;4.47;;;3.40;;
38783;SDS011;24531;45.502;12.238;2024-02-21T09:23:25;5.55;;;3.38;;
38783;SDS011;24531;45.502;12.238;2024-02-21T09:25:51;3.55;;;3.08;;
38783;SDS011;24531;45.502;12.238;2024-02-21T09:28:16;3.97;;;3.40;;
38783;SDS011;24531;45.502;12.238;2024-02-21T09:30:42;6.75;;;4.38;;
38783;SDS011;24531;45.502;12.238;2024-02-21T09:33:08;5.53;;;3.78;;
38783;SDS011;24531;45.502;12.238;2024-02-21T09:35:33;5.88;;;3.75;;
38783;SDS011;24531;45.502;12.238;2024-02-21T09:37:59;5.28;;;3.83;;
38783;SDS011;24531;45.502;12.238;2024-02-21T09:40:25;3.83;;;3.50;;
38783;SDS011;24531;45.502;12.238;2024-02-21T09:42:54;4.38;;;3.20;;
38783;SDS011;24531;45.502;12.238;2024-02-21T09:45:34;4.07;;;3.55;;
38783;SDS011;24531;45.502;12.238;2024-02-21T09:50:44;5.50;;;3.88;;
38783;SDS011;24531;45.502;12.238;2024-02-21T09:53:12;6.97;;;4.82;;
38783;SDS011;24531;45.502;12.238;2024-02-21T09:55:41;5.75;;;3.97;;
38783;SDS011;24531;45.502;12.238;2024-02-21T09:58:08;6.32;;;3.95;;
38783;SDS011;24531;45.502;12.238;2024-02-21T10:00:35;5.05;;;3.55;;
38783;SDS011;24531;45.502;12.238;2024-02-21T10:03:01;5.10;;;3.65;;
38783;SDS011;24531;45.502;12.238;2024-02-21T10:05:32;4.07;;;3.45;;
38783;SDS011;24531;45.502;12.238;2024-02-21T10:08:02;4.18;;;2.97;;
38783;SDS011;24531;45.502;12.238;2024-02-21T10:10:28;3.90;;;3.08;;
38783;SDS011;24531;45.502;12.238;2024-02-21T10:12:55;4.95;;;2.72;;
38783;SDS011;24531;45.502;12.238;2024-02-21T10:15:21;6.13;;;2.53;;
38783;SDS011;24531;45.502;12.238;2024-02-21T10:17:47;3.50;;;2.58;;
38783;SDS011;24531;45.502;12.238;2024-02-21T10:20:13;7.07;;;3.08;;
38783;SDS011;24531;45.502;12.238;2024-02-21T10:22:40;5.22;;;2.92;;
38783;SDS011;24531;45.502;12.238;2024-02-21T10:25:09;5.10;;;2.75;;
38783;SDS011;24531;45.502;12.238;2024-02-21T10:27:36;4.20;;;2.85;;
38783;SDS011;24531;45.502;12.238;2024-02-21T10:30:13;4.10;;;2.83;;
38783;SDS011;24531;45.502;12.238;2024-02-21T10:32:52;6.43;;;2.83;;
38783;SDS011;24531;45.502;12.238;2024-02-21T10:35:31;6.32;;;2.65;;
38783;SDS011;24531;45.502;12.238;2024-02-21T10:37:58;3.28;;;2.72;;
38783;SDS011;24531;45.502;12.238;2024-02-21T10:40:28;4.93;;;3.42;;
38783;SDS011;24531;45.502;12.238;2024-02-21T10:42:56;4.32;;;2.90;;
38783;SDS011;24531;45.502;12.238;2024-02-21T10:45:30;5.05;;;2.38;;
38783;SDS011;24531;45.502;12.238;2024-02-21T10:50:56;4.47;;;2.85;;
38783;SDS011;24531;45.502;12.238;2024-02-21T10:53:36;3.78;;;3.03;;
38783;SDS011;24531;45.502;12.238;2024-02-21T10:58:48;7.03;;;3.40;;
38783;SDS011;24531;45.502;12.238;2024-02-21T11:01:14;8.27;;;4.05;;
38783;SDS011;24531;45.502;12.238;2024-02-21T11:03:43;4.65;;;3.42;;
38783;SDS011;24531;45.502;12.238;2024-02-21T11:06:13;4.93;;;3.47;;
38783;SDS011;24531;45.502;12.238;2024-02-21T11:08:40;6.93;;;3.55;;
38783;SDS011;24531;45.502;12.238;2024-02-21T11:11:06;5.22;;;3.40;;
38783;SDS011;24531;45.502;12.238;2024-02-21T11:13:37;5.90;;;3.08;;
38783;SDS011;24531;45.502;12.238;2024-02-21T11:16:09;4.28;;;3.38;;
38783;SDS011;24531;45.502;12.238;2024-02-21T11:18:39;4.63;;;3.13;;
38783;SDS011;24531;45.502;12.238;2024-02-21T11:21:05;2.88;;;2.67;;
38783;SDS011;24531;45.502;12.238;2024-02-21T11:23:31;3.30;;;2.92;;
38783;SDS011;24531;45.502;12.238;2024-02-21T11:26:04;4.35;;;3.30;;
38783;SDS011;24531;45.502;12.238;2024-02-21T11:28:33;3.42;;;2.75;;
38783;SDS011;24531;45.502;12.238;2024-02-21T11:31:07;3.35;;;2.90;;
38783;SDS011;24531;45.502;12.238;2024-02-21T11:36:00;4.80;;;2.70;;
38783;SDS011;24531;45.502;12.238;2024-02-21T11:38:26;3.45;;;2.88;;
38783;SDS011;24531;45.502;12.238;2024-02-21T11:40:52;5.63;;;3.40;;
38783;SDS011;24531;45.502;12.238;2024-02-21T11:43:17;4.30;;;3.00;;
38783;SDS011;24531;45.502;12.238;2024-02-21T11:45:43;5.15;;;3.42;;
38783;SDS011;24531;45.502;12.238;2024-02-21T11:48:08;3.70;;;2.97;;
38783;SDS011;24531;45.502;12.238;2024-02-21T11:50:35;4.18;;;3.30;;
38783;SDS011;24531;45.502;12.238;2024-02-21T11:53:04;5.13;;;3.53;;
38783;SDS011;24531;45.502;12.238;2024-02-21T11:55:30;7.57;;;4.20;;
38783;SDS011;24531;45.502;12.238;2024-02-21T11:57:56;5.60;;;3.80;;
38783;SDS011;24531;45.502;12.238;2024-02-21T12:00:22;4.70;;;4.20;;
38783;SDS011;24531;45.502;12.238;2024-02-21T12:02:49;6.50;;;3.88;;
38783;SDS011;24531;45.502;12.238;2024-02-21T12:05:16;4.65;;;3.35;;
38783;SDS011;24531;45.502;12.238;2024-02-21T12:07:43;8.60;;;3.90;;
38783;SDS011;24531;45.502;12.238;2024-02-21T12:10:09;6.70;;;4.13;;
38783;SDS011;24531;45.502;12.238;2024-02-21T12:12:37;5.03;;;4.18;;
38783;SDS011;24531;45.502;12.238;2024-02-21T12:15:06;5.28;;;3.95;;
38783;SDS011;24531;45.502;12.238;2024-02-21T12:17:35;8.57;;;4.95;;
38783;SDS011;24531;45.502;12.238;2024-02-21T12:20:02;6.90;;;4.80;;
38783;SDS011;24531;45.502;12.238;2024-02-21T12:22:30;5.38;;;4.03;;
38783;SDS011;24531;45.502;12.238;2024-02-21T12:24:57;9.55;;;4.85;;
38783;SDS011;24531;45.502;12.238;2024-02-21T12:27:23;6.18;;;4.55;;
38783;SDS011;24531;45.502;12.238;2024-02-21T12:29:50;10.00;;;4.63;;
38783;SDS011;24531;45.502;12.238;2024-02-21T12:32:16;6.70;;;4.45;;
38783;SDS011;24531;45.502;12.238;2024-02-21T12:34:41;6.18;;;4.82;;
38783;SDS011;24531;45.502;12.238;2024-02-21T12:37:07;10.68;;;5.30;;
38783;SDS011;24531;45.502;12.238;2024-02-21T12:39:33;8.07;;;5.35;;
38783;SDS011;24531;45.502;12.238;2024-02-21T12:41:59;7.85;;;5.20;;
38783;SDS011;24531;45.502;12.238;2024-02-21T12:44:24;8.25;;;4.78;;
38783;SDS011;24531;45.502;12.238;2024-02-21T12:46:50;11.50;;;5.22;;
38783;SDS011;24531;45.502;12.238;2024-02-21T12:49:18;7.20;;;4.75;;
38783;SDS011;24531;45.502;12.238;2024-02-21T12:51:44;9.00;;;4.25;;
38783;SDS011;24531;45.502;12.238;2024-02-21T12:54:13;7.03;;;4.43;;
38783;SDS011;24531;45.502;12.238;2024-02-21T12:56:38;7.57;;;4.93;;
38783;SDS011;24531;45.502;12.238;2024-02-21T12:59:07;11.25;;;4.63;;
38783;SDS011;24531;45.502;12.238;2024-02-21T13:01:36;9.27;;;5.03;;
38783;SDS011;24531;45.502;12.238;2024-02-21T13:04:02;7.00;;;4.57;;
38783;SDS011;24531;45.502;12.238;2024-02-21T13:06:28;8.00;;;4.90;;
38783;SDS011;24531;45.502;12.238;2024-02-21T13:08:53;11.02;;;5.20;;
38783;SDS011;24531;45.502;12.238;2024-02-21T13:11:19;8.75;;;5.03;;
38783;SDS011;24531;45.502;12.238;2024-02-21T13:13:45;10.90;;;5.55;;
38783;SDS011;24531;45.502;12.238;2024-02-21T13:16:10;10.20;;;5.25;;
38783;SDS011;24531;45.502;12.238;2024-02-21T13:18:36;10.57;;;4.97;;
38783;SDS011;24531;45.502;12.238;2024-02-21T13:21:07;9.65;;;5.95;;
38783;SDS011;24531;45.502;12.238;2024-02-21T13:23:33;9.48;;;5.30;;
38783;SDS011;24531;45.502;12.238;2024-02-21T13:25:59;10.80;;;5.47;;
38783;SDS011;24531;45.502;12.238;2024-02-21T13:28:24;8.05;;;5.32;;
38783;SDS011;24531;45.502;12.238;2024-02-21T13:30:50;8.75;;;5.53;;
38783;SDS011;24531;45.502;12.238;2024-02-21T13:33:16;10.40;;;5.53;;
38783;SDS011;24531;45.502;12.238;2024-02-21T13:35:41;10.93;;;6.15;;
38783;SDS011;24531;45.502;12.238;2024-02-21T13:38:07;22.00;;;7.88;;
38783;SDS011;24531;45.502;12.238;2024-02-21T13:40:34;9.05;;;5.93;;
38783;SDS011;24531;45.502;12.238;2024-02-21T13:43:00;13.23;;;6.72;;
38783;SDS011;24531;45.502;12.238;2024-02-21T13:45:26;12.30;;;6.32;;
38783;SDS011;24531;45.502;12.238;2024-02-21T13:47:52;11.93;;;6.85;;
38783;SDS011;24531;45.502;12.238;2024-02-21T13:50:18;11.10;;;6.85;;
38783;SDS011;24531;45.502;12.238;2024-02-21T13:52:45;16.02;;;7.45;;
38783;SDS011;24531;45.502;12.238;2024-02-21T13:55:11;17.98;;;6.70;;
38783;SDS011;24531;45.502;12.238;2024-02-21T13:57:37;15.02;;;7.28;;
38783;SDS011;24531;45.502;12.238;2024-02-21T14:00:03;16.45;;;6.80;;
38783;SDS011;24531;45.502;12.238;2024-02-21T14:02:30;11.35;;;7.13;;
38783;SDS011;24531;45.502;12.238;2024-02-21T14:04:56;9.35;;;6.18;;
38783;SDS011;24531;45.502;12.238;2024-02-21T14:07:22;12.38;;;6.25;;
38783;SDS011;24531;45.502;12.238;2024-02-21T14:09:48;11.15;;;5.75;;
38783;SDS011;24531;45.502;12.238;2024-02-21T14:12:15;11.63;;;5.72;;
38783;SDS011;24531;45.502;12.238;2024-02-21T14:14:43;9.15;;;6.55;;
38783;SDS011;24531;45.502;12.238;2024-02-21T14:17:09;16.70;;;7.22;;
38783;SDS011;24531;45.502;12.238;2024-02-21T14:19:35;15.00;;;6.05;;
38783;SDS011;24531;45.502;12.238;2024-02-21T14:22:01;8.95;;;5.50;;
38783;SDS011;24531;45.502;12.238;2024-02-21T14:24:27;10.93;;;5.90;;
38783;SDS011;24531;45.502;12.238;2024-02-21T14:26:53;10.55;;;5.78;;